createdAt,value
2024-04-12T00:04:31.051Z,7.00
2024-04-12T00:09:34.164Z,7.10
2024-04-12T00:14:38.764Z,6.90
2024-04-12T00:19:41.884Z,6.80
2024-04-12T00:24:46.922Z,6.70
2024-04-12T00:29:50.271Z,6.70
2024-04-12T00:34:53.922Z,6.60
2024-04-12T00:39:57.717Z,6.60
2024-04-12T00:45:03.698Z,6.60
2024-04-12T00:50:08.482Z,6.50
2024-04-12T00:55:13.451Z,6.60
2024-04-12T01:00:30.196Z,6.50
2024-04-12T01:05:34.316Z,6.40
2024-04-12T01:10:38.424Z,6.40
2024-04-12T01:15:41.684Z,6.60
2024-04-12T01:20:45.361Z,6.60
2024-04-12T01:25:49.340Z,6.30
2024-04-12T01:31:01.303Z,6.40
2024-04-12T01:36:12.602Z,6.40
2024-04-12T01:41:15.961Z,6.40
2024-04-12T01:46:19.273Z,6.40
2024-04-12T01:51:26.591Z,6.20
2024-04-12T01:56:31.979Z,6.00
2024-04-12T02:01:36.087Z,6.10
2024-04-12T02:06:43.890Z,5.80
2024-04-12T02:11:48.064Z,5.80
2024-04-12T02:16:52.612Z,5.80
2024-04-12T02:21:55.737Z,5.90
2024-04-12T02:26:59.526Z,5.80
2024-04-12T02:32:02.722Z,5.80
2024-04-12T02:37:08.114Z,5.90
2024-04-12T02:42:19.121Z,5.80
2024-04-12T02:47:22.499Z,5.60
2024-04-12T02:52:26.537Z,6.00
2024-04-12T02:57:30.931Z,6.10
2024-04-12T03:02:34.752Z,6.40
2024-04-12T03:07:39.265Z,6.30
2024-04-12T03:12:44.674Z,6.20
2024-04-12T03:17:49.011Z,6.20
2024-04-12T03:22:53.994Z,6.00
2024-04-12T03:27:58.772Z,6.00
2024-04-12T03:33:04.558Z,5.90
2024-04-12T03:38:26.286Z,5.90
2024-04-12T03:43:29.898Z,6.00
2024-04-12T03:48:34.909Z,5.90
2024-04-12T03:53:38.468Z,5.90
2024-04-12T03:58:43.082Z,5.70
2024-04-12T04:03:50.970Z,5.70
2024-04-12T04:08:54.390Z,5.60
2024-04-12T04:13:57.685Z,5.50
2024-04-12T04:19:01.145Z,5.60
2024-04-12T04:24:10.310Z,5.70
2024-04-12T04:29:13.914Z,5.60
2024-04-12T04:34:21.821Z,5.80
2024-04-12T04:39:26.190Z,6.00
2024-04-12T04:44:31.325Z,5.90
2024-04-12T04:49:34.631Z,6.00
2024-04-12T04:54:40.875Z,6.00
2024-04-12T04:59:46.864Z,6.10
2024-04-12T05:04:51.983Z,6.30
2024-04-12T05:09:55.111Z,6.70
2024-04-12T05:14:58.182Z,6.90
2024-04-12T05:20:01.991Z,7.10
2024-04-12T05:25:06.768Z,7.30
2024-04-12T05:30:10.268Z,7.70
2024-04-12T05:35:16.906Z,8.10
2024-04-12T05:40:23.600Z,8.40
2024-04-12T05:45:28.604Z,8.70
2024-04-12T05:50:32.015Z,9.20
2024-04-12T05:55:35.109Z,9.50
2024-04-12T06:00:42.793Z,9.80
2024-04-12T06:05:57.038Z,10.20
2024-04-12T06:11:00.224Z,10.70
2024-04-12T06:16:03.893Z,11.10
2024-04-12T06:21:12.107Z,11.80
2024-04-12T06:26:16.262Z,12.00
2024-04-12T06:31:21.856Z,12.30
2024-04-12T06:36:26.416Z,12.70
2024-04-12T06:41:31.988Z,12.70
2024-04-12T06:46:37.666Z,13.00
2024-04-12T06:52:01.203Z,13.30
2024-04-12T06:57:06.127Z,13.40
2024-04-12T07:02:15.768Z,13.50
2024-04-12T07:07:24.291Z,13.60
2024-04-12T07:12:29.139Z,13.50
2024-04-12T07:17:33.067Z,13.70
2024-04-12T07:22:36.253Z,13.90
2024-04-12T07:27:42.987Z,13.90
2024-04-12T07:32:46.304Z,14.10
2024-04-12T07:37:49.474Z,14.30
2024-04-12T07:42:53.740Z,14.60
2024-04-12T07:48:13.466Z,14.60
2024-04-12T07:53:23.098Z,15.10
2024-04-12T07:58:36.078Z,15.00
2024-04-12T08:03:40.688Z,15.40
2024-04-12T08:08:47.091Z,15.70
2024-04-12T08:13:51.974Z,16.70
2024-04-12T08:18:59.140Z,16.70
2024-04-12T08:24:11.898Z,17.00
2024-04-12T08:29:30.507Z,18.00
2024-04-12T08:34:35.244Z,18.50
2024-04-12T08:39:44.565Z,19.10
2024-04-12T08:44:49.396Z,19.40
2024-04-12T08:50:05.213Z,19.30
2024-04-12T09:00:19.201Z,19.20
2024-04-12T09:05:26.663Z,20.40
2024-04-12T09:10:38.445Z,21.00
2024-04-12T09:15:43.998Z,21.10
2024-04-12T09:20:54.645Z,21.80
2024-04-12T09:25:59.543Z,20.60
2024-04-12T09:31:21.427Z,21.40
2024-04-12T09:36:58.073Z,22.00
2024-04-12T09:42:05.038Z,22.10
2024-04-12T09:47:19.337Z,22.20
2024-04-12T09:52:41.796Z,22.50
2024-04-12T09:58:06.150Z,23.00
2024-04-12T10:03:31.356Z,23.00
2024-04-12T10:08:53.241Z,23.10
2024-04-12T10:14:16.010Z,22.70
2024-04-12T10:19:37.682Z,23.70
2024-04-12T10:25:08.807Z,23.30
2024-04-12T10:30:30.937Z,24.40
2024-04-12T10:35:53.656Z,23.70
2024-04-12T10:40:59.718Z,23.60
2024-04-12T10:46:06.811Z,22.40
2024-04-12T10:51:14.185Z,24.30
2024-04-12T10:56:21.452Z,24.20
2024-04-12T11:01:25.255Z,24.70
2024-04-12T11:06:35.814Z,24.30
2024-04-12T11:11:40.234Z,24.60
2024-04-12T11:17:07.004Z,24.90
2024-04-12T11:22:31.017Z,25.00
2024-04-12T11:27:52.848Z,25.70
2024-04-12T11:32:57.393Z,25.20
2024-04-12T11:38:01.204Z,24.70
2024-04-12T11:43:08.521Z,24.90
2024-04-12T11:48:16.861Z,24.70
2024-04-12T11:53:21.869Z,25.00
2024-04-12T11:58:25.008Z,24.70
2024-04-12T12:03:28.268Z,24.70
2024-04-12T12:08:38.712Z,24.60
2024-04-12T12:13:43.971Z,24.50
2024-04-12T12:18:47.383Z,24.70
2024-04-12T12:23:51.779Z,25.10
2024-04-12T12:28:59.277Z,25.40
2024-04-12T12:34:06.670Z,24.90
2024-04-12T12:39:11.563Z,24.60
2024-04-12T12:44:19.869Z,24.70
2024-04-12T12:49:26.877Z,23.00
2024-04-12T12:54:30.927Z,24.10
2024-04-12T12:59:42.440Z,23.40
2024-04-12T13:04:49.653Z,24.80
2024-04-12T13:09:57.026Z,25.10
2024-04-12T13:15:00.560Z,23.60
2024-04-12T13:20:08.229Z,23.80
2024-04-12T13:25:15.351Z,24.40
2024-04-12T13:30:18.845Z,24.60
2024-04-12T13:35:22.888Z,24.30
2024-04-12T13:40:26.919Z,24.10
2024-04-12T13:45:49.025Z,24.20
2024-04-12T13:50:58.447Z,23.80
2024-04-12T13:56:21.777Z,24.20
2024-04-12T14:01:30.886Z,24.80
2024-04-12T14:06:36.483Z,24.10
2024-04-12T14:11:40.546Z,24.10
2024-04-12T14:16:43.827Z,25.50
2024-04-12T14:21:53.212Z,24.20
2024-04-12T14:26:56.725Z,24.40
2024-04-12T14:32:07.293Z,24.40
2024-04-12T14:37:15.420Z,25.00
2024-04-12T14:42:22.392Z,24.80
2024-04-12T14:47:27.338Z,23.30
2024-04-12T14:52:31.060Z,22.70
2024-04-12T14:57:34.586Z,23.80
2024-04-12T15:02:42.395Z,24.00
2024-04-12T15:08:04.146Z,23.70
2024-04-12T15:13:25.961Z,24.50
2024-04-12T15:18:47.970Z,24.20
2024-04-12T15:24:09.989Z,23.90
2024-04-12T15:29:31.862Z,23.40
2024-04-12T15:34:54.000Z,23.80
2024-04-12T15:40:16.054Z,23.20
2024-04-12T15:45:38.055Z,23.10
2024-04-12T15:50:45.339Z,22.30
2024-04-12T15:56:02.265Z,22.90
2024-04-12T16:01:24.413Z,22.20
2024-04-12T16:06:46.081Z,21.90
2024-04-12T16:11:49.358Z,22.20
2024-04-12T16:16:52.711Z,22.10
2024-04-12T16:21:55.953Z,21.90
2024-04-12T16:26:59.462Z,21.60
2024-04-12T16:32:03.750Z,21.30
2024-04-12T16:37:07.150Z,20.70
2024-04-12T16:42:10.664Z,20.40
2024-04-12T16:47:14.979Z,20.30
2024-04-12T16:52:18.809Z,19.90
2024-04-12T16:57:21.892Z,19.60
2024-04-12T17:02:25.166Z,19.20
2024-04-12T17:07:28.494Z,18.80
2024-04-12T17:12:31.719Z,18.40
2024-04-12T17:17:37.800Z,17.80
2024-04-12T17:22:41.597Z,17.30
2024-04-12T17:27:45.128Z,17.00
2024-04-12T17:32:48.838Z,16.60
2024-04-12T17:37:52.954Z,16.60
2024-04-12T17:42:56.106Z,16.20
2024-04-12T17:47:59.448Z,15.90
2024-04-12T17:53:03.047Z,15.70
2024-04-12T17:58:07.257Z,15.50
2024-04-12T18:03:10.604Z,15.40
2024-04-12T18:08:13.949Z,15.20
2024-04-12T18:13:17.191Z,15.10
2024-04-12T18:18:20.498Z,15.10
2024-04-12T18:23:23.935Z,14.90
2024-04-12T18:28:27.884Z,14.80
2024-04-12T18:33:33.452Z,14.50
2024-04-12T18:38:55.683Z,14.70
2024-04-12T18:44:18.009Z,14.50
2024-04-12T18:49:21.474Z,14.40
2024-04-12T18:54:25.438Z,14.30
2024-04-12T18:59:29.232Z,14.10
2024-04-12T19:04:32.649Z,14.00
2024-04-12T19:09:35.856Z,13.90
2024-04-12T19:14:40.254Z,13.70
2024-04-12T19:19:43.960Z,13.70
2024-04-12T19:24:47.739Z,13.70
2024-04-12T19:29:53.163Z,13.60
2024-04-12T19:34:56.776Z,13.40
2024-04-12T19:40:00.039Z,13.40
2024-04-12T19:45:03.611Z,13.20
2024-04-12T19:50:08.525Z,13.20
2024-04-12T19:55:13.017Z,13.10
2024-04-12T20:00:16.393Z,13.10
2024-04-12T20:05:19.653Z,13.20
2024-04-12T20:10:23.107Z,13.10
2024-04-12T20:15:31.646Z,13.10
2024-04-12T20:20:36.866Z,13.10
2024-04-12T20:25:40.541Z,13.10
2024-04-12T20:31:00.223Z,13.00
2024-04-12T20:36:19.824Z,12.90
2024-04-12T20:41:23.253Z,13.00
2024-04-12T20:46:26.722Z,13.10
2024-04-12T20:51:31.865Z,13.10
2024-04-12T20:56:35.204Z,12.90
2024-04-12T21:01:49.117Z,12.80
2024-04-12T21:06:54.359Z,12.60
2024-04-12T21:11:58.061Z,12.50
2024-04-12T21:17:02.719Z,12.50
2024-04-12T21:22:05.943Z,12.30
2024-04-12T21:27:09.163Z,12.40
2024-04-12T21:32:12.499Z,12.10
2024-04-12T21:37:15.595Z,12.10
2024-04-12T21:42:18.716Z,12.30
2024-04-12T21:47:21.873Z,12.20
2024-04-12T21:52:25.148Z,12.50
2024-04-12T21:57:28.492Z,13.00
2024-04-12T22:02:31.796Z,13.10
2024-04-12T22:07:34.920Z,13.10
2024-04-12T22:12:38.062Z,13.20
2024-04-12T22:17:41.276Z,13.00
2024-04-12T22:22:44.513Z,12.70
2024-04-12T22:27:47.642Z,12.60
2024-04-12T22:32:51.217Z,12.50
2024-04-12T22:37:54.401Z,12.20
2024-04-12T22:43:00.711Z,12.20
2024-04-12T22:48:04.264Z,12.00
2024-04-12T22:53:08.722Z,11.90
2024-04-12T22:58:14.950Z,11.80
2024-04-12T23:03:19.452Z,11.50
2024-04-12T23:08:22.873Z,11.40
2024-04-12T23:13:26.048Z,11.20
2024-04-12T23:18:29.239Z,11.10
2024-04-12T23:23:32.347Z,10.80
2024-04-12T23:28:35.640Z,10.50
2024-04-12T23:33:39.023Z,10.30
2024-04-12T23:38:42.174Z,10.40
2024-04-12T23:43:45.263Z,10.30
2024-04-12T23:48:48.879Z,10.30
2024-04-12T23:53:52.073Z,10.20
2024-04-12T23:58:55.165Z,10.10
